sim
Sign-in with your pilot id or email,
or register
Callsign
Passwort

Schedule Details

Flight Number: DLH1680
Departure: Munich Airport (EDDM) at 17:55
Arrival: Budapest Ferenc Liszt International Airport (LHBP) at 19:10
Route: Lufthansa Passenger Schedule. Enter filed route here before submitting Pirep.

Weather Information
Getting current METAR information for EDDM 010020Z 33001KT 1500 0500NE R08L/0550D R08R/0700N BCFG NSC 05/05 Q1011 NOSIG
Getting current METAR information for LHBP 010000Z 30011KT 9999 FEW015 OVC075 13/11 Q1006 NOSIG

Schedule Frequency

Route Map